Time;durP1;ratioP1;P1;durP2;ratioP2;P2;SDS_P1;SDS_P2;PMS_P1;PMS_P2;Temp;Humidity;BMP_temperature;BMP_pressure;BME280_temperature;BME280_humidity;BME280_pressure;Samples;Min_cycle;Max_cycle;Signal;HPM_P1;HPM_P2
2021/06/02 00:01:17;;;;;;;0.00;0.00;;;22.20;64.60;;;;;;4158020;28;20054;-49
2021/06/02 00:03:40;;;;;;;0.45;0.45;;;22.20;64.60;;;;;;4159134;28;20041;-46
2021/06/02 00:06:03;;;;;;;1.02;0.93;;;22.20;64.70;;;;;;4174631;28;20041;-47
2021/06/02 00:08:25;;;;;;;0.00;0.00;;;22.20;64.80;;;;;;4174581;28;20084;-45
2021/06/02 00:10:49;;;;;;;0.05;0.05;;;22.20;64.80;;;;;;4174604;28;20052;-47
2021/06/02 00:13:13;;;;;;;0.00;0.00;;;22.20;64.90;;;;;;4174608;28;20491;-46
2021/06/02 00:15:34;;;;;;;0.00;0.00;;;22.20;64.90;;;;;;4163385;28;20045;-50
2021/06/02 00:18:00;;;;;;;0.03;0.03;;;22.20;64.90;;;;;;4160835;28;20076;-47
2021/06/02 00:20:21;;;;;;;0.65;0.63;;;22.10;64.80;;;;;;4157916;28;20057;-50
2021/06/02 00:22:45;;;;;;;0.00;0.00;;;22.10;64.90;;;;;;4157421;28;20620;-44
2021/06/02 00:25:08;;;;;;;0.00;0.00;;;22.10;65.00;;;;;;4157896;28;20127;-46
2021/06/02 00:27:30;;;;;;;0.10;0.10;;;22.10;65.10;;;;;;4157679;28;20103;-48
2021/06/02 00:29:53;;;;;;;0.47;0.47;;;22.10;65.30;;;;;;4157958;28;20057;-49
2021/06/02 00:32:15;;;;;;;0.75;0.20;;;22.10;65.30;;;;;;4158895;28;20119;-47
2021/06/02 00:34:38;;;;;;;0.03;0.03;;;22.10;65.30;;;;;;4162216;28;20068;-49
2021/06/02 00:37:02;;;;;;;0.35;0.35;;;22.10;65.30;;;;;;4166862;28;20053;-49
2021/06/02 00:39:23;;;;;;;0.00;0.00;;;22.20;65.30;;;;;;4166596;28;20421;-47
2021/06/02 00:41:47;;;;;;;0.00;0.00;;;22.10;65.40;;;;;;4173474;28;20128;-48
2021/06/02 00:44:12;;;;;;;0.00;0.00;;;22.10;65.30;;;;;;4174343;28;20053;-47
2021/06/02 00:46:36;;;;;;;0.00;0.00;;;22.10;65.30;;;;;;4172844;28;20049;-46
2021/06/02 00:49:00;;;;;;;0.32;0.32;;;22.10;65.30;;;;;;4174563;28;20057;-46
2021/06/02 00:51:24;;;;;;;0.00;0.00;;;22.10;65.40;;;;;;4176290;28;20537;-46
2021/06/02 00:53:45;;;;;;;0.00;0.00;;;22.10;65.30;;;;;;4167520;28;20571;-47
2021/06/02 00:56:08;;;;;;;0.00;0.00;;;22.10;65.30;;;;;;4160959;28;20253;-46
2021/06/02 00:58:31;;;;;;;0.00;0.00;;;22.10;65.30;;;;;;4160835;28;20078;-45
2021/06/02 01:00:53;;;;;;;0.00;0.00;;;22.10;65.30;;;;;;4160609;28;20439;-48
2021/06/02 01:03:22;;;;;;;0.00;0.00;;;22.10;65.30;;;;;;4160637;28;20397;-48
2021/06/02 01:05:44;;;;;;;0.40;0.40;;;22.10;65.40;;;;;;4160770;28;20057;-48
2021/06/02 01:08:07;;;;;;;0.00;0.00;;;22.10;65.40;;;;;;4160745;28;20048;-49
2021/06/02 01:10:31;;;;;;;0.00;0.00;;;22.10;65.50;;;;;;4159410;28;20385;-49
2021/06/02 01:12:53;;;;;;;0.00;0.00;;;22.00;66.40;;;;;;4160362;28;20415;-47
2021/06/02 01:15:15;;;;;;;0.00;0.00;;;22.00;65.60;;;;;;4160549;28;20080;-47
2021/06/02 01:17:37;;;;;;;0.00;0.00;;;22.00;65.70;;;;;;4160535;28;20057;-50
2021/06/02 01:20:00;;;;;;;0.10;0.10;;;22.00;65.90;;;;;;4170954;28;20111;-47
2021/06/02 01:22:23;;;;;;;0.00;0.00;;;22.00;66.80;;;;;;4176013;28;20400;-46
2021/06/02 01:24:45;;;;;;;0.00;0.00;;;21.90;65.80;;;;;;4177167;28;20059;-47
2021/06/02 01:27:08;;;;;;;0.00;0.00;;;22.00;66.00;;;;;;4176956;28;20049;-45
2021/06/02 01:29:30;;;;;;;0.00;0.00;;;21.90;66.80;;;;;;4176675;28;20037;-45
2021/06/02 01:32:09;;;;;;;0.00;0.00;;;21.90;66.00;;;;;;4177014;28;20049;-46
2021/06/02 01:34:59;;;;;;;0.00;0.00;;;21.90;66.10;;;;;;4170798;28;20068;-46
2021/06/02 01:37:47;;;;;;;0.03;0.03;;;21.90;66.20;;;;;;4143930;28;20571;-49
2021/06/02 01:40:30;;;;;;;0.50;0.50;;;21.90;66.30;;;;;;4157274;28;20053;-47
2021/06/02 01:43:06;;;;;;;0.00;0.00;;;21.80;66.40;;;;;;4159861;28;20411;-51
2021/06/02 01:45:44;;;;;;;0.00;0.00;;;21.80;66.50;;;;;;4159854;28;20057;-48
2021/06/02 01:48:29;;;;;;;0.45;0.45;;;21.80;66.60;;;;;;4162616;28;20069;-47
2021/06/02 01:51:24;;;;;;;0.10;0.10;;;21.80;66.80;;;;;;4176529;28;20541;-48
2021/06/02 01:54:10;;;;;;;0.00;0.00;;;21.80;66.80;;;;;;4162348;28;20055;-47
2021/06/02 01:57:08;;;;;;;0.00;0.00;;;21.70;66.90;;;;;;4159874;28;20056;-49
2021/06/02 01:59:57;;;;;;;0.00;0.00;;;21.70;67.00;;;;;;4136430;28;20041;-53
2021/06/02 02:02:54;;;;;;;0.10;0.10;;;21.70;67.00;;;;;;4159741;28;20056;-47
2021/06/02 02:05:58;;;;;;;0.00;0.00;;;21.70;67.00;;;;;;4137204;28;20059;-47
2021/06/02 02:08:43;;;;;;;0.00;0.00;;;21.70;67.10;;;;;;4159309;28;20045;-46
2021/06/02 02:11:15;;;;;;;0.05;0.05;;;21.70;67.30;;;;;;4159627;28;20045;-47
2021/06/02 02:14:04;;;;;;;0.00;0.00;;;21.70;67.30;;;;;;4158402;28;20131;-49
2021/06/02 02:16:33;;;;;;;0.00;0.00;;;21.60;67.30;;;;;;4160982;28;20136;-49
2021/06/02 02:19:08;;;;;;;0.00;0.00;;;21.60;67.40;;;;;;4175633;28;20140;-46
2021/06/02 02:21:57;;;;;;;0.00;0.00;;;21.60;67.40;;;;;;4175523;28;20076;-49
2021/06/02 02:24:36;;;;;;;0.00;0.00;;;21.60;67.20;;;;;;4170033;28;20057;-50
2021/06/02 02:27:07;;;;;;;0.00;0.00;;;21.60;67.10;;;;;;4175745;28;20057;-54
2021/06/02 02:29:42;;;;;;;0.00;0.00;;;21.50;67.20;;;;;;4176061;28;20858;-47
2021/06/02 02:32:36;;;;;;;0.00;0.00;;;21.50;67.30;;;;;;4160718;28;20042;-48
2021/06/02 02:35:20;;;;;;;0.00;0.00;;;21.50;67.20;;;;;;4155878;28;20055;-49
2021/06/02 02:37:51;;;;;;;0.00;0.00;;;21.50;67.20;;;;;;4158578;28;20148;-47
2021/06/02 02:40:23;;;;;;;0.00;0.00;;;21.50;67.20;;;;;;4159618;28;20122;-47
2021/06/02 02:42:56;;;;;;;0.00;0.00;;;21.50;67.30;;;;;;4175257;28;20056;-48
2021/06/02 02:45:25;;;;;;;0.00;0.00;;;21.50;67.30;;;;;;4175460;28;20102;-48
2021/06/02 02:48:00;;;;;;;0.13;0.13;;;21.50;67.30;;;;;;4175278;28;20055;-47
2021/06/02 02:50:31;;;;;;;0.00;0.00;;;21.50;67.40;;;;;;4170377;28;20072;-46
2021/06/02 02:53:05;;;;;;;0.52;0.52;;;21.40;67.40;;;;;;4174789;28;20049;-46
2021/06/02 02:55:29;;;;;;;5.57;1.38;;;21.40;67.50;;;;;;4175117;28;20099;-51
2021/06/02 02:57:58;;;;;;;0.00;0.00;;;21.40;67.60;;;;;;4174119;28;20049;-49
2021/06/02 03:00:24;;;;;;;0.00;0.00;;;21.40;67.60;;;;;;4158996;28;20077;-46
2021/06/02 03:02:53;;;;;;;0.40;0.40;;;21.30;67.50;;;;;;4163531;28;20484;-45
2021/06/02 03:05:22;;;;;;;0.03;0.03;;;21.40;67.60;;;;;;4175262;28;20075;-47
2021/06/02 03:07:48;;;;;;;0.32;0.32;;;21.40;67.50;;;;;;4173136;28;20086;-48
2021/06/02 03:10:14;;;;;;;0.00;0.00;;;21.40;67.60;;;;;;4171399;28;20057;-46
2021/06/02 03:12:48;;;;;;;0.10;0.10;;;21.30;67.60;;;;;;4172155;28;20057;-49
2021/06/02 03:15:21;;;;;;;0.43;0.43;;;21.40;67.70;;;;;;4173548;28;20095;-51
2021/06/02 03:17:46;;;;;;;0.30;0.30;;;21.40;67.80;;;;;;4166353;28;20052;-49
2021/06/02 03:20:16;;;;;;;0.00;0.00;;;21.40;67.90;;;;;;4158580;28;20084;-49
2021/06/02 03:22:52;;;;;;;0.93;0.20;;;21.40;67.80;;;;;;4144745;28;20053;-47
2021/06/02 03:25:20;;;;;;;14.45;0.57;;;21.40;67.90;;;;;;4140637;28;20046;-47
2021/06/02 03:27:56;;;;;;;0.30;0.30;;;21.40;67.80;;;;;;4156745;28;20049;-47
2021/06/02 03:30:27;;;;;;;0.15;0.15;;;21.30;67.80;;;;;;4174480;28;20059;-46
2021/06/02 03:32:59;;;;;;;;;;;21.40;67.90;;;;;;4174951;28;20344;-50
2021/06/02 03:35:28;;;;;;;0.00;0.00;;;21.40;68.10;;;;;;4174623;28;19924;-48
2021/06/02 03:38:12;;;;;;;0.00;0.00;;;21.40;67.90;;;;;;4165145;28;20107;-50
2021/06/02 03:40:43;;;;;;;0.10;0.10;;;21.40;68.00;;;;;;4158357;28;20454;-48
2021/06/02 03:43:08;;;;;;;;;;;21.40;68.10;;;;;;4158384;28;20063;-50
2021/06/02 03:45:43;;;;;;;0.00;0.00;;;21.40;68.10;;;;;;4158458;28;20309;-49
2021/06/02 03:48:24;;;;;;;0.03;0.03;;;21.30;68.10;;;;;;4170577;28;20056;-49
2021/06/02 03:50:55;;;;;;;0.60;0.60;;;21.30;68.20;;;;;;4173083;28;20045;-45
2021/06/02 03:53:32;;;;;;;0.20;0.20;;;21.30;68.30;;;;;;4174517;28;20041;-50
2021/06/02 03:56:02;;;;;;;0.00;0.00;;;21.30;68.40;;;;;;4174581;28;20122;-48
2021/06/02 03:58:32;;;;;;;0.00;0.00;;;21.30;68.40;;;;;;4169234;28;20060;-51
2021/06/02 04:01:13;;;;;;;0.00;0.00;;;21.30;68.40;;;;;;4158217;28;20049;-50
2021/06/02 04:03:49;;;;;;;0.43;0.43;;;21.30;68.40;;;;;;4157640;28;20408;-48
2021/06/02 04:06:18;;;;;;;0.38;0.38;;;21.30;68.50;;;;;;4143077;28;20049;-46
2021/06/02 04:08:43;;;;;;;0.00;0.00;;;21.30;69.50;;;;;;4157690;28;20099;-49
2021/06/02 04:11:15;;;;;;;0.17;0.17;;;21.30;68.50;;;;;;4157914;28;20049;-52
2021/06/02 04:13:53;;;;;;;0.03;0.03;;;21.30;68.60;;;;;;4157944;28;20456;-51
2021/06/02 04:16:22;;;;;;;0.00;0.00;;;21.30;68.60;;;;;;4142041;28;20053;-52
2021/06/02 04:18:47;;;;;;;0.00;0.00;;;21.30;68.60;;;;;;4142247;28;20065;-50
2021/06/02 04:21:10;;;;;;;0.00;0.00;;;21.30;68.60;;;;;;4157901;28;20073;-48
2021/06/02 04:23:37;;;;;;;0.10;0.10;;;21.30;68.60;;;;;;4144947;28;20481;-53
2021/06/02 04:26:01;;;;;;;0.30;0.30;;;21.30;68.60;;;;;;4176570;28;20471;-53
2021/06/02 04:28:23;;;;;;;0.10;0.10;;;21.30;68.60;;;;;;4161660;28;20052;-50
2021/06/02 04:30:49;;;;;;;0.20;0.20;;;21.30;68.40;;;;;;4161232;28;20046;-50
2021/06/02 04:33:16;;;;;;;0.15;0.15;;;21.30;68.30;;;;;;4145449;28;20537;-57
2021/06/02 04:35:39;;;;;;;0.00;0.00;;;21.30;68.10;;;;;;4161347;28;20155;-47
2021/06/02 04:38:02;;;;;;;0.25;0.25;;;21.40;68.10;;;;;;4146095;28;20415;-49
2021/06/02 04:40:23;;;;;;;0.00;0.00;;;21.40;68.00;;;;;;4146337;28;20038;-46
2021/06/02 04:42:45;;;;;;;0.20;0.20;;;21.40;67.80;;;;;;4145890;28;20100;-53
2021/06/02 04:45:09;;;;;;;1.00;0.40;;;21.40;67.70;;;;;;4144708;28;20077;-49
2021/06/02 04:47:33;;;;;;;0.00;0.00;;;21.40;67.70;;;;;;4158545;28;20103;-49
2021/06/02 04:50:06;;;;;;;0.10;0.10;;;21.50;67.60;;;;;;4177379;28;20060;-48
2021/06/02 04:52:59;;;;;;;0.57;0.47;;;21.40;67.50;;;;;;4177128;28;20056;-50
2021/06/02 04:55:41;;;;;;;0.20;0.20;;;21.40;67.50;;;;;;4175664;28;20135;-49
2021/06/02 04:58:16;;;;;;;0.43;0.43;;;21.40;67.50;;;;;;4145639;28;20045;-48
2021/06/02 05:01:09;;;;;;;0.68;0.68;;;21.40;67.60;;;;;;4144508;28;20124;-46
2021/06/02 05:03:58;;;;;;;4.40;0.50;;;21.40;67.60;;;;;;4152012;28;20084;-45
2021/06/02 05:06:57;;;;;;;0.00;0.00;;;21.40;67.50;;;;;;4176892;28;20049;-47
2021/06/02 05:10:01;;;;;;;0.20;0.20;;;21.40;67.20;;;;;;4174205;28;20083;-47
2021/06/02 05:13:00;;;;;;;0.82;0.82;;;21.50;67.10;;;;;;4173550;28;20045;-48
2021/06/02 05:15:59;;;;;;;0.28;0.28;;;21.70;66.90;;;;;;4177072;28;20052;-48
2021/06/02 05:19:00;;;;;;;0.00;0.00;;;21.80;66.10;;;;;;4160250;28;20058;-44
2021/06/02 05:22:06;;;;;;;0.10;0.10;;;22.00;65.00;;;;;;4171604;28;20839;-47
2021/06/02 05:24:58;;;;;;;9.40;1.55;;;22.10;63.60;;;;;;4145202;28;20117;-49
2021/06/02 05:28:14;;;;;;;1.50;0.60;;;22.30;64.00;;;;;;4160056;28;20809;-48
2021/06/02 05:31:07;;;;;;;2.45;0.75;;;22.40;63.10;;;;;;4155533;28;20069;-44
2021/06/02 05:33:59;;;;;;;0.28;0.28;;;22.40;62.60;;;;;;4148693;28;20053;-45
2021/06/02 05:36:56;;;;;;;0.00;0.00;;;22.30;62.40;;;;;;4175907;28;20068;-47
2021/06/02 05:39:48;;;;;;;0.10;0.10;;;22.30;62.40;;;;;;4174955;28;20484;-45
2021/06/02 05:42:22;;;;;;;0.00;0.00;;;22.20;62.60;;;;;;4173945;28;20049;-45
2021/06/02 05:45:26;;;;;;;0.43;0.43;;;22.20;62.00;;;;;;4174249;28;20056;-48
2021/06/02 05:48:20;;;;;;;0.15;0.15;;;22.20;61.80;;;;;;4107322;28;20261;-46
2021/06/02 05:51:17;;;;;;;0.75;0.75;;;22.10;62.00;;;;;;4149723;28;20094;-44
2021/06/02 05:53:58;;;;;;;1.10;1.10;;;22.10;62.20;;;;;;4165236;28;20053;-45
2021/06/02 05:56:53;;;;;;;0.25;0.25;;;22.00;63.10;;;;;;4159911;28;20056;-46
2021/06/02 05:59:39;;;;;;;0.73;0.73;;;22.00;62.60;;;;;;4159793;28;20439;-45
2021/06/02 06:02:36;;;;;;;0.47;0.47;;;21.90;62.50;;;;;;4156762;28;20047;-49
2021/06/02 06:05:43;;;;;;;0.00;0.00;;;21.90;62.60;;;;;;4150648;28;20470;-45
2021/06/02 06:08:45;;;;;;;0.28;0.28;;;21.80;62.80;;;;;;4094465;28;20075;-46
2021/06/02 06:11:53;;;;;;;0.13;0.13;;;21.80;62.80;;;;;;4141681;28;20137;-46
2021/06/02 06:14:48;;;;;;;0.00;0.00;;;21.80;63.10;;;;;;4157585;28;20473;-45
2021/06/02 06:17:48;;;;;;;0.10;0.10;;;21.80;63.10;;;;;;4173570;28;20052;-47
2021/06/02 06:20:45;;;;;;;2.28;0.93;;;21.80;64.00;;;;;;4175148;28;20419;-46
2021/06/02 06:23:29;;;;;;;0.35;0.35;;;21.80;65.40;;;;;;4175758;28;20488;-46
2021/06/02 06:25:56;;;;;;;1.70;0.98;;;21.90;65.50;;;;;;4175589;28;20064;-46
2021/06/02 06:28:28;;;;;;;0.10;0.10;;;21.90;65.80;;;;;;4158195;28;20057;-48
2021/06/02 06:30:51;;;;;;;0.40;0.40;;;21.90;65.80;;;;;;4166588;28;20055;-45
2021/06/02 06:33:17;;;;;;;0.20;0.20;;;21.90;66.00;;;;;;4175932;28;20045;-45
2021/06/02 06:35:41;;;;;;;0.68;0.35;;;21.90;65.40;;;;;;4175889;28;21452;-49
2021/06/02 06:38:03;;;;;;;2.35;1.65;;;22.00;65.10;;;;;;4175663;28;20098;-47
2021/06/02 06:40:28;;;;;;;0.77;0.77;;;22.00;64.60;;;;;;4170962;28;20048;-49
2021/06/02 06:42:53;;;;;;;0.10;0.10;;;22.10;64.10;;;;;;4160975;28;20496;-47
2021/06/02 06:45:23;;;;;;;37.60;2.28;;;22.10;64.60;;;;;;4160025;28;20051;-45
2021/06/02 06:47:48;;;;;;;0.05;0.05;;;22.30;63.70;;;;;;4158805;28;20415;-45
2021/06/02 06:50:11;;;;;;;0.15;0.15;;;22.30;63.70;;;;;;4157907;28;20068;-46
2021/06/02 06:52:34;;;;;;;2.13;0.40;;;22.30;63.30;;;;;;4159152;28;20052;-45
2021/06/02 06:54:59;;;;;;;0.73;0.73;;;22.40;63.10;;;;;;4144691;28;20057;-45
2021/06/02 06:57:21;;;;;;;1.77;1.23;;;22.50;62.60;;;;;;4158722;28;20419;-47
2021/06/02 06:59:43;;;;;;;0.57;0.57;;;22.50;62.30;;;;;;4158671;28;20140;-44
2021/06/02 07:02:07;;;;;;;1.17;0.93;;;22.60;62.10;;;;;;4158747;28;20099;-44
2021/06/02 07:04:30;;;;;;;3.03;2.28;;;22.70;62.00;;;;;;4158736;28;20049;-43
2021/06/02 07:06:53;;;;;;;0.50;0.50;;;22.70;62.40;;;;;;4158834;28;20132;-45
2021/06/02 07:09:16;;;;;;;0.52;0.52;;;22.80;61.30;;;;;;4158926;28;20431;-46
2021/06/02 07:11:40;;;;;;;0.55;0.55;;;22.80;61.10;;;;;;4161171;28;20423;-46
2021/06/02 07:14:02;;;;;;;0.03;0.03;;;22.80;61.10;;;;;;4175444;28;20037;-46
2021/06/02 07:16:23;;;;;;;1.40;1.00;;;22.90;61.00;;;;;;4163973;28;20072;-45
2021/06/02 07:18:47;;;;;;;1.25;0.75;;;22.90;60.90;;;;;;4175296;28;20099;-46
2021/06/02 07:21:09;;;;;;;0.00;0.00;;;22.90;60.80;;;;;;4173373;28;20132;-45
2021/06/02 07:23:32;;;;;;;0.60;0.60;;;23.00;60.50;;;;;;4171502;28;20675;-44
2021/06/02 07:25:54;;;;;;;0.38;0.38;;;23.00;60.60;;;;;;4144387;28;20478;-44
2021/06/02 07:28:27;;;;;;;0.10;0.10;;;23.00;60.50;;;;;;4159829;28;20053;-45
2021/06/02 07:30:48;;;;;;;0.85;0.85;;;23.00;60.50;;;;;;4157961;28;20049;-45
2021/06/02 07:33:10;;;;;;;0.98;0.52;;;23.00;60.40;;;;;;4159751;28;20061;-45
2021/06/02 07:35:33;;;;;;;0.30;0.28;;;23.00;60.10;;;;;;4174869;28;20106;-46
2021/06/02 07:37:55;;;;;;;0.28;0.28;;;23.00;59.90;;;;;;4172055;28;20048;-48
2021/06/02 07:40:18;;;;;;;1.60;0.95;;;23.00;59.90;;;;;;4158166;28;20053;-47
2021/06/02 07:42:40;;;;;;;0.30;0.30;;;23.00;59.90;;;;;;4159558;28;20052;-46
2021/06/02 07:45:03;;;;;;;0.80;0.47;;;23.00;60.10;;;;;;4159466;28;20041;-44
2021/06/02 07:47:25;;;;;;;0.10;0.10;;;23.00;60.20;;;;;;4158437;28;20067;-44
2021/06/02 07:49:49;;;;;;;0.52;0.52;;;23.00;60.30;;;;;;4158297;28;20099;-46
2021/06/02 07:52:12;;;;;;;0.43;0.43;;;23.00;60.20;;;;;;4156183;28;20077;-44
2021/06/02 07:54:34;;;;;;;0.10;0.10;;;23.00;60.30;;;;;;4157642;28;20045;-49
2021/06/02 07:56:56;;;;;;;0.70;0.70;;;23.00;60.30;;;;;;4174715;28;20048;-49
2021/06/02 07:59:18;;;;;;;0.38;0.30;;;23.00;60.20;;;;;;4157813;28;20385;-52
2021/06/02 08:01:39;;;;;;;0.15;0.15;;;23.00;60.00;;;;;;4158039;28;20058;-45
2021/06/02 08:04:05;;;;;;;1.42;1.33;;;23.00;60.00;;;;;;4157418;28;20522;-44
2021/06/02 08:06:27;;;;;;;0.17;0.17;;;23.00;60.80;;;;;;4140274;28;20076;-46
2021/06/02 08:08:49;;;;;;;0.00;0.00;;;23.00;59.90;;;;;;4157904;28;20056;-46
2021/06/02 08:11:11;;;;;;;0.25;0.25;;;23.00;59.90;;;;;;4158199;28;20423;-44
2021/06/02 08:13:33;;;;;;;0.03;0.03;;;23.00;60.10;;;;;;4158118;28;20073;-46
2021/06/02 08:15:54;;;;;;;0.30;0.30;;;23.00;59.90;;;;;;4173485;28;20503;-45
2021/06/02 08:18:16;;;;;;;1.65;0.15;;;23.00;59.80;;;;;;4174290;28;20045;-44
2021/06/02 08:20:38;;;;;;;0.15;0.15;;;23.00;59.70;;;;;;4174316;28;20052;-44
2021/06/02 08:23:00;;;;;;;0.30;0.30;;;23.00;59.70;;;;;;4158032;28;20072;-46
2021/06/02 08:25:23;;;;;;;0.47;0.47;;;23.00;59.60;;;;;;4172894;28;20063;-45
2021/06/02 08:27:45;;;;;;;0.45;0.45;;;23.00;59.60;;;;;;4172841;28;20053;-44
2021/06/02 08:30:08;;;;;;;0.40;0.40;;;23.00;59.60;;;;;;4174069;28;20560;-49
2021/06/02 08:32:30;;;;;;;2.60;0.63;;;23.00;59.50;;;;;;4173753;28;20049;-45
2021/06/02 08:34:52;;;;;;;0.10;0.10;;;23.00;59.40;;;;;;4174156;28;20604;-44
2021/06/02 08:37:14;;;;;;;0.10;0.10;;;23.00;59.30;;;;;;4174279;28;20084;-45
2021/06/02 08:39:36;;;;;;;0.35;0.35;;;23.00;59.20;;;;;;4174304;28;20045;-44
2021/06/02 08:42:09;;;;;;;0.45;0.32;;;23.00;59.20;;;;;;4171115;28;20049;-44
2021/06/02 08:44:32;;;;;;;0.00;0.00;;;23.00;59.40;;;;;;4157859;28;20053;-44
2021/06/02 08:46:54;;;;;;;2.55;2.15;;;23.10;59.40;;;;;;4157732;28;20055;-45
2021/06/02 08:49:16;;;;;;;0.00;0.00;;;23.10;59.30;;;;;;4157736;28;20057;-44
2021/06/02 08:51:37;;;;;;;0.00;0.00;;;23.10;59.30;;;;;;4157576;28;20050;-44
2021/06/02 08:53:59;;;;;;;0.00;0.00;;;23.10;59.20;;;;;;4157692;28;20129;-45
2021/06/02 08:56:22;;;;;;;0.30;0.30;;;23.10;59.20;;;;;;4157523;28;20415;-47
2021/06/02 08:58:45;;;;;;;0.40;0.40;;;23.10;59.10;;;;;;4172949;28;20056;-45
2021/06/02 09:01:07;;;;;;;0.38;0.38;;;23.10;59.00;;;;;;4157289;28;20096;-45
2021/06/02 09:03:31;;;;;;;0.00;0.00;;;23.10;59.00;;;;;;4157444;28;20056;-47
2021/06/02 09:05:56;;;;;;;0.00;0.00;;;23.10;59.00;;;;;;4157636;28;20077;-45
2021/06/02 09:08:23;;;;;;;0.00;0.00;;;23.20;59.00;;;;;;4157684;28;20064;-44
2021/06/02 09:10:46;;;;;;;0.10;0.10;;;23.20;59.00;;;;;;4160367;28;20088;-45
2021/06/02 09:13:15;;;;;;;0.70;0.70;;;23.20;58.90;;;;;;4161743;28;20496;-44
2021/06/02 09:15:39;;;;;;;0.70;0.63;;;23.20;59.00;;;;;;4160210;28;20041;-44
2021/06/02 09:18:04;;;;;;;0.32;0.32;;;23.20;58.90;;;;;;4164205;28;20057;-45
2021/06/02 09:20:34;;;;;;;0.40;0.35;;;23.30;59.00;;;;;;4166186;28;20415;-46
2021/06/02 09:22:55;;;;;;;0.00;0.00;;;23.30;59.00;;;;;;4160422;28;20404;-45
2021/06/02 09:25:23;;;;;;;1.25;0.52;;;23.30;58.80;;;;;;4160477;28;20541;-44
2021/06/02 09:27:48;;;;;;;0.00;0.00;;;23.30;58.80;;;;;;4160170;28;20491;-45
2021/06/02 09:30:13;;;;;;;0.52;0.52;;;23.30;58.70;;;;;;4161546;28;20065;-45
2021/06/02 09:32:47;;;;;;;0.28;0.28;;;23.30;58.70;;;;;;4160264;28;20045;-44
2021/06/02 09:35:09;;;;;;;0.22;0.22;;;23.30;58.50;;;;;;4160031;28;20057;-44
2021/06/02 09:37:32;;;;;;;0.10;0.10;;;23.40;58.40;;;;;;4161397;28;20059;-44
2021/06/02 09:39:53;;;;;;;0.45;0.45;;;23.40;58.40;;;;;;4160233;28;20518;-45
2021/06/02 09:42:20;;;;;;;0.55;0.20;;;23.40;58.30;;;;;;4158844;28;20046;-46
2021/06/02 09:44:41;;;;;;;0.00;0.00;;;23.40;58.30;;;;;;4159802;28;20400;-45
2021/06/02 09:47:05;;;;;;;0.30;0.30;;;23.40;58.40;;;;;;4160260;28;20072;-46
2021/06/02 09:49:29;;;;;;;0.15;0.15;;;23.40;58.20;;;;;;4160133;28;20136;-44
2021/06/02 09:51:52;;;;;;;0.00;0.00;;;23.50;58.30;;;;;;4159825;28;20514;-46
2021/06/02 09:54:14;;;;;;;0.25;0.25;;;23.50;58.20;;;;;;4161071;28;20045;-45
2021/06/02 09:56:40;;;;;;;1.55;0.88;;;23.50;58.10;;;;;;4165177;28;20407;-45
2021/06/02 09:59:02;;;;;;;0.00;0.00;;;23.60;58.20;;;;;;4176526;28;20421;-45
2021/06/02 10:01:24;;;;;;;0.80;0.80;;;23.60;58.10;;;;;;4165488;28;20116;-44
2021/06/02 10:03:46;;;;;;;0.20;0.20;;;23.60;58.00;;;;;;4159702;28;20049;-47
2021/06/02 10:06:16;;;;;;;0.50;0.50;;;23.60;58.00;;;;;;4159796;28;20061;-45
2021/06/02 10:08:41;;;;;;;0.08;0.08;;;23.70;58.00;;;;;;4159548;28;20510;-48
2021/06/02 10:11:12;;;;;;;0.00;0.00;;;23.70;57.90;;;;;;4159823;28;20132;-45
2021/06/02 10:13:34;;;;;;;0.00;0.00;;;23.70;57.70;;;;;;4159826;28;20049;-48
2021/06/02 10:15:56;;;;;;;0.10;0.10;;;23.70;57.60;;;;;;4175185;28;20052;-44
2021/06/02 10:18:25;;;;;;;0.00;0.00;;;23.70;57.60;;;;;;4171533;28;20054;-49
2021/06/02 10:20:57;;;;;;;0.08;0.08;;;23.70;57.80;;;;;;4158057;28;20046;-45
2021/06/02 10:23:20;;;;;;;0.00;0.00;;;23.70;57.80;;;;;;4167210;28;20044;-44
2021/06/02 10:25:53;;;;;;;1.25;0.50;;;23.70;57.80;;;;;;4175540;28;20045;-47
2021/06/02 10:28:16;;;;;;;0.10;0.10;;;23.60;58.60;;;;;;4175746;28;20143;-45
2021/06/02 10:30:38;;;;;;;0.40;0.40;;;23.60;57.80;;;;;;4165929;28;20049;-44
2021/06/02 10:32:59;;;;;;;0.00;0.00;;;23.60;57.90;;;;;;4175431;28;20098;-45
2021/06/02 10:35:21;;;;;;;0.65;0.65;;;23.70;58.00;;;;;;4175989;28;20048;-43
2021/06/02 10:37:44;;;;;;;1.23;1.23;;;23.70;58.10;;;;;;4175810;28;20045;-44
2021/06/02 10:40:10;;;;;;;0.30;0.30;;;23.70;58.10;;;;;;4175681;28;20095;-44
2021/06/02 10:42:38;;;;;;;0.75;0.75;;;23.70;58.20;;;;;;4175732;28;20056;-44
2021/06/02 10:45:05;;;;;;;0.57;0.57;;;23.70;58.20;;;;;;4160157;28;20530;-46
2021/06/02 10:47:27;;;;;;;0.52;0.52;;;23.70;58.20;;;;;;4158945;28;20565;-44
2021/06/02 10:49:51;;;;;;;2.85;2.30;;;23.70;58.20;;;;;;4162450;28;20125;-44
2021/06/02 10:52:12;;;;;;;0.38;0.38;;;23.60;58.20;;;;;;4169572;28;20056;-46
2021/06/02 10:54:37;;;;;;;1.40;1.40;;;23.60;58.20;;;;;;4158915;28;20147;-44
2021/06/02 10:57:11;;;;;;;0.40;0.40;;;23.60;58.20;;;;;;4146743;28;20152;-44
2021/06/02 10:59:34;;;;;;;1.33;1.23;;;23.60;58.20;;;;;;4149129;28;20736;-44
2021/06/02 11:02:07;;;;;;;0.28;0.28;;;23.60;58.10;;;;;;4172508;28;20056;-44
2021/06/02 11:04:29;;;;;;;1.33;1.33;;;23.60;58.00;;;;;;4174697;28;20052;-46
2021/06/02 11:06:51;;;;;;;0.38;0.38;;;23.60;58.10;;;;;;4175363;28;20053;-44
2021/06/02 11:09:22;;;;;;;3.00;2.53;;;23.60;58.00;;;;;;4175543;28;20142;-46
2021/06/02 11:11:44;;;;;;;;;;;23.70;58.20;;;;;;4175254;28;20053;-45
2021/06/02 11:14:27;;;;;;;1.60;1.50;;;23.70;58.00;;;;;;4173255;28;19997;-44
2021/06/02 11:16:51;;;;;;;0.70;0.70;;;23.70;57.90;;;;;;4159649;28;20046;-44
2021/06/02 11:19:13;;;;;;;0.13;0.13;;;23.70;57.80;;;;;;4173637;28;20077;-44
2021/06/02 11:21:43;;;;;;;0.13;0.13;;;23.80;57.70;;;;;;4171901;28;20542;-46
2021/06/02 11:24:06;;;;;;;1.30;0.77;;;23.80;57.60;;;;;;4171001;28;20056;-44
2021/06/02 11:26:31;;;;;;;0.40;0.40;;;23.80;57.60;;;;;;4167491;28;20801;-44
2021/06/02 11:28:55;;;;;;;5.18;2.33;;;23.80;57.70;;;;;;4159729;28;20056;-45
2021/06/02 11:31:26;;;;;;;3.83;0.82;;;23.90;57.90;;;;;;4174850;28;20052;-45
2021/06/02 11:33:47;;;;;;;0.77;0.77;;;23.90;57.80;;;;;;4144373;28;20046;-50
2021/06/02 11:36:09;;;;;;;0.63;0.63;;;23.90;57.90;;;;;;4174766;28;20052;-52
2021/06/02 11:38:33;;;;;;;10.32;2.47;;;23.90;57.70;;;;;;4174989;28;20067;-45
2021/06/02 11:40:55;;;;;;;1.55;1.48;;;24.00;57.70;;;;;;4173415;28;20483;-49
2021/06/02 11:43:19;;;;;;;0.35;0.35;;;23.90;57.50;;;;;;4174589;28;20454;-45
2021/06/02 11:45:43;;;;;;;0.85;0.85;;;24.00;57.30;;;;;;4165838;28;20073;-44
2021/06/02 11:48:07;;;;;;;2.20;1.42;;;24.00;57.10;;;;;;4159186;28;20212;-44
2021/06/02 11:50:28;;;;;;;0.93;0.82;;;24.00;57.00;;;;;;4144745;28;20049;-44
2021/06/02 11:52:55;;;;;;;1.05;1.05;;;24.00;56.80;;;;;;4143228;28;20448;-47
2021/06/02 11:55:19;;;;;;;0.75;0.65;;;24.00;56.60;;;;;;4142959;28;20061;-44
2021/06/02 11:57:41;;;;;;;1.80;1.60;;;24.10;56.60;;;;;;4157823;28;20049;-47
2021/06/02 12:00:07;;;;;;;0.45;0.45;;;24.10;56.60;;;;;;4157999;28;20091;-48
2021/06/02 12:02:29;;;;;;;0.73;0.73;;;24.10;56.40;;;;;;4166342;28;20052;-44
2021/06/02 12:04:52;;;;;;;0.65;0.50;;;24.10;56.30;;;;;;4160556;28;20054;-44
2021/06/02 12:07:21;;;;;;;0.60;0.60;;;24.10;56.20;;;;;;4158261;28;20104;-45
2021/06/02 12:09:48;;;;;;;0.05;0.05;;;24.10;56.00;;;;;;4158922;28;20423;-44
2021/06/02 12:12:10;;;;;;;0.17;0.17;;;24.20;56.10;;;;;;4158269;28;20077;-47
2021/06/02 12:14:32;;;;;;;0.10;0.10;;;24.20;56.00;;;;;;4157938;28;20126;-43
2021/06/02 12:17:01;;;;;;;1.02;0.70;;;24.20;56.00;;;;;;4157176;28;20136;-46
2021/06/02 12:19:22;;;;;;;0.00;0.00;;;24.30;55.90;;;;;;4161038;28;20049;-46
2021/06/02 12:21:46;;;;;;;0.03;0.03;;;24.30;55.80;;;;;;4174289;28;20134;-46
2021/06/02 12:24:08;;;;;;;0.00;0.00;;;24.30;56.40;;;;;;4174303;28;20056;-44
2021/06/02 12:26:33;;;;;;;1.00;0.95;;;24.30;55.60;;;;;;4161358;28;20053;-44
2021/06/02 12:28:56;;;;;;;0.73;0.73;;;24.30;55.60;;;;;;4157986;28;20440;-44
2021/06/02 12:31:39;;;;;;;0.15;0.15;;;24.40;55.60;;;;;;4161610;28;20140;-44
2021/06/02 12:34:06;;;;;;;0.00;0.00;;;24.40;55.40;;;;;;4142907;28;20410;-47
2021/06/02 12:36:28;;;;;;;0.25;0.25;;;24.40;55.20;;;;;;4141319;28;20053;-41
2021/06/02 12:38:54;;;;;;;0.40;0.40;;;24.50;55.10;;;;;;4147914;28;20140;-44
2021/06/02 12:41:24;;;;;;;0.00;0.00;;;24.50;55.20;;;;;;4157753;28;20580;-45
2021/06/02 12:43:47;;;;;;;0.27;0.27;;;24.50;55.00;;;;;;4174146;28;20033;-45
2021/06/02 12:46:10;;;;;;;0.17;0.17;;;24.50;54.80;;;;;;4175172;28;20059;-44
2021/06/02 12:48:33;;;;;;;5.68;1.65;;;24.50;54.60;;;;;;4177401;28;20053;-45
2021/06/02 12:50:55;;;;;;;0.73;0.50;;;24.50;54.50;;;;;;4176387;28;20047;-44
2021/06/02 12:53:18;;;;;;;0.40;0.40;;;24.50;54.30;;;;;;4174367;28;20045;-44
2021/06/02 12:55:43;;;;;;;0.00;0.00;;;24.50;54.30;;;;;;4160776;28;20045;-44
2021/06/02 12:58:06;;;;;;;0.75;0.75;;;24.50;54.20;;;;;;4160229;28;20126;-46
2021/06/02 13:00:27;;;;;;;0.08;0.08;;;24.50;54.30;;;;;;4167619;28;20053;-46